Time;durP1;ratioP1;P1;durP2;ratioP2;P2;SDS_P1;SDS_P2;PMS_P1;PMS_P2;Temp;Humidity;BMP_temperature;BMP_pressure;BME280_temperature;BME280_humidity;BME280_pressure;Samples;Min_cycle;Max_cycle;Signal;HPM_P1;HPM_P2
2022/02/12 00:00:43;;;;;;;11.68;4.05;;;1.60;88.20;;;;;;6155119;22;91687;-69
2022/02/12 00:03:10;;;;;;;13.55;4.72;;;1.60;88.20;;;;;;6127755;22;95624;-70
2022/02/12 00:05:37;;;;;;;11.13;4.18;;;1.60;88.30;;;;;;6128421;22;92920;-73
2022/02/12 00:08:05;;;;;;;10.30;4.47;;;1.60;88.40;;;;;;6078293;22;94892;-71
2022/02/12 00:10:32;;;;;;;17.60;5.03;;;1.60;88.50;;;;;;6156197;22;92398;-73
2022/02/12 00:12:59;;;;;;;11.90;4.85;;;1.60;88.60;;;;;;6129062;22;95877;-73
2022/02/12 00:15:26;;;;;;;13.60;4.65;;;1.50;88.60;;;;;;6155989;22;92984;-73
2022/02/12 00:17:54;;;;;;;13.57;4.82;;;1.50;88.70;;;;;;6155961;22;92360;-69
2022/02/12 00:20:21;;;;;;;12.55;4.00;;;1.50;88.70;;;;;;6129176;22;92441;-69
2022/02/12 00:22:48;;;;;;;15.80;5.30;;;1.50;88.80;;;;;;6155958;22;93214;-69
2022/02/12 00:25:15;;;;;;;14.60;5.03;;;1.50;89.00;;;;;;6129999;22;93074;-69
2022/02/12 00:27:42;;;;;;;12.05;5.00;;;1.50;88.90;;;;;;6128917;22;94748;-70
2022/02/12 00:30:10;;;;;;;13.25;4.82;;;1.50;89.10;;;;;;6156030;22;92401;-70
2022/02/12 00:32:37;;;;;;;14.55;5.43;;;1.40;89.10;;;;;;6127871;22;95575;-69
2022/02/12 00:35:04;;;;;;;12.32;4.53;;;1.40;89.30;;;;;;6155441;22;93949;-73
2022/02/12 00:37:31;;;;;;;15.55;4.80;;;1.40;89.30;;;;;;6156105;22;92352;-73
2022/02/12 00:39:58;;;;;;;15.45;5.13;;;1.40;89.30;;;;;;6129599;22;92633;-70
2022/02/12 00:42:26;;;;;;;21.63;5.00;;;1.40;89.40;;;;;;6155859;22;93098;-69
2022/02/12 00:44:53;;;;;;;16.30;4.53;;;1.30;89.40;;;;;;6155534;22;93066;-69
2022/02/12 00:47:21;;;;;;;13.25;4.90;;;1.30;89.50;;;;;;6129177;22;92396;-73
2022/02/12 00:49:48;;;;;;;12.80;4.50;;;1.30;89.50;;;;;;6156180;22;91661;-70
2022/02/12 00:52:15;;;;;;;8.90;4.63;;;1.30;89.40;;;;;;6155686;22;93306;-73
2022/02/12 00:54:42;;;;;;;13.65;4.40;;;1.20;89.30;;;;;;6123285;23;93016;-72
2022/02/12 00:57:09;;;;;;;13.23;5.30;;;1.20;89.40;;;;;;6124414;23;94689;-73
2022/02/12 00:59:37;;;;;;;13.88;5.40;;;1.20;89.60;;;;;;6075060;23;92387;-73
2022/02/12 01:02:04;;;;;;;18.20;6.13;;;1.20;90.00;;;;;;6125457;23;93078;-73
2022/02/12 01:04:31;;;;;;;13.85;5.40;;;1.20;90.20;;;;;;6074934;23;95404;-69
2022/02/12 01:06:58;;;;;;;16.40;5.43;;;1.20;90.20;;;;;;6125889;23;92727;-69
2022/02/12 01:09:25;;;;;;;14.80;5.80;;;1.30;90.30;;;;;;6099659;23;92524;-73
2022/02/12 01:11:52;;;;;;;18.55;6.32;;;1.30;90.30;;;;;;6125382;23;93339;-73
2022/02/12 01:14:19;;;;;;;13.00;5.70;;;1.20;90.20;;;;;;6126203;23;93086;-73
2022/02/12 01:16:47;;;;;;;18.13;6.40;;;1.20;90.20;;;;;;6125941;23;92388;-69
2022/02/12 01:19:15;;;;;;;14.55;6.45;;;1.20;90.20;;;;;;6125642;23;92339;-69
2022/02/12 01:21:42;;;;;;;14.05;5.60;;;1.20;90.30;;;;;;6098037;23;95565;-69
2022/02/12 01:24:11;;;;;;;15.50;6.82;;;1.20;90.30;;;;;;6099301;23;95298;-69
2022/02/12 01:26:38;;;;;;;20.20;6.25;;;1.20;90.30;;;;;;6125922;23;92505;-70
2022/02/12 01:29:05;;;;;;;14.43;6.38;;;1.20;90.30;;;;;;6098912;23;92421;-69
2022/02/12 01:31:32;;;;;;;18.00;6.30;;;1.10;90.30;;;;;;6099057;23;95744;-69
2022/02/12 01:33:59;;;;;;;14.60;6.97;;;1.10;90.40;;;;;;6074760;23;95895;-68
2022/02/12 01:36:27;;;;;;;15.48;6.45;;;1.10;90.40;;;;;;6125830;23;92428;-73
2022/02/12 01:38:54;;;;;;;14.43;6.93;;;1.10;90.50;;;;;;6098727;23;106139;-69
2022/02/12 01:41:22;;;;;;;16.83;6.80;;;1.10;90.40;;;;;;6099366;23;93012;-69
2022/02/12 01:43:49;;;;;;;14.43;6.65;;;1.10;90.50;;;;;;6098958;23;95466;-69
2022/02/12 01:46:17;;;;;;;12.13;6.68;;;1.10;90.50;;;;;;6097569;23;94791;-69
2022/02/12 01:48:44;;;;;;;14.52;6.55;;;1.10;90.50;;;;;;6125765;23;92388;-70
2022/02/12 01:51:12;;;;;;;17.50;6.60;;;1.10;90.50;;;;;;6075209;23;93101;-69
2022/02/12 01:53:39;;;;;;;13.23;6.40;;;1.10;90.50;;;;;;6125498;23;92990;-69
2022/02/12 01:56:09;;;;;;;17.50;6.13;;;1.10;90.60;;;;;;6140899;22;92418;-69
2022/02/12 01:58:36;;;;;;;14.05;6.93;;;1.10;90.60;;;;;;6153871;22;93490;-69
2022/02/12 02:01:03;;;;;;;16.50;6.68;;;1.10;90.60;;;;;;6153885;22;93121;-69
2022/02/12 02:03:30;;;;;;;19.38;7.57;;;1.10;90.60;;;;;;6155946;22;92916;-69
2022/02/12 02:05:59;;;;;;;20.05;7.75;;;1.10;90.60;;;;;;6128310;22;105341;-69
2022/02/12 02:08:28;;;;;;;14.07;6.35;;;1.10;90.70;;;;;;6154425;22;92319;-69
2022/02/12 02:10:57;;;;;;;16.92;7.03;;;1.10;90.80;;;;;;6152518;22;95133;-69
2022/02/12 02:13:28;;;;;;;13.98;6.60;;;1.10;90.90;;;;;;6155118;22;95288;-69
2022/02/12 02:15:55;;;;;;;13.98;6.60;;;1.10;91.00;;;;;;6154314;22;92456;-69
2022/02/12 02:18:22;;;;;;;21.63;7.15;;;1.10;91.00;;;;;;6155099;22;92404;-69
2022/02/12 02:20:50;;;;;;;25.85;7.47;;;1.10;91.00;;;;;;6153827;22;95774;-69
2022/02/12 02:23:18;;;;;;;19.30;6.53;;;1.10;91.00;;;;;;6155213;22;93051;-69
2022/02/12 02:25:45;;;;;;;15.52;6.10;;;1.10;90.90;;;;;;6153745;22;92384;-69
2022/02/12 02:28:12;;;;;;;18.98;6.78;;;1.10;91.00;;;;;;6129445;22;91756;-69
2022/02/12 02:30:40;;;;;;;14.95;6.65;;;1.10;91.00;;;;;;6154940;22;93017;-69
2022/02/12 02:33:09;;;;;;;16.10;6.50;;;1.10;91.00;;;;;;6155127;22;92919;-69
2022/02/12 02:35:37;;;;;;;11.23;6.43;;;1.10;91.00;;;;;;6154143;22;94770;-72
2022/02/12 02:38:08;;;;;;;16.80;6.78;;;1.10;91.00;;;;;;6128651;22;92496;-73
2022/02/12 02:40:36;;;;;;;18.20;7.70;;;1.10;91.00;;;;;;6155798;22;93103;-73
2022/02/12 02:43:03;;;;;;;14.05;6.72;;;1.00;90.90;;;;;;6153283;22;94162;-72
2022/02/12 02:45:31;;;;;;;14.35;6.47;;;1.00;90.90;;;;;;6155531;22;92310;-73
2022/02/12 02:48:01;;;;;;;21.27;6.93;;;1.10;91.00;;;;;;6155603;22;92458;-72
2022/02/12 02:56:08;;;;;;;15.05;6.10;;;1.10;91.00;;;;;;6153784;22;92395;-73
2022/02/12 02:58:46;;;;;;;21.13;6.33;;;1.00;91.00;;;;;;6155444;22;92602;-73
2022/02/12 03:01:22;;;;;;;23.20;6.82;;;1.10;91.10;;;;;;6151877;22;95636;-69
2022/02/12 03:03:51;;;;;;;11.75;5.95;;;1.10;91.10;;;;;;6128715;22;97987;-68
2022/02/12 03:06:20;;;;;;;11.80;5.72;;;1.00;91.10;;;;;;6128581;22;92935;-72
2022/02/12 03:08:48;;;;;;;11.82;4.88;;;1.00;91.10;;;;;;6153561;22;92377;-72
2022/02/12 03:11:16;;;;;;;12.68;5.65;;;1.00;91.00;;;;;;6154924;22;93222;-73
2022/02/12 03:13:45;;;;;;;19.73;5.63;;;1.00;91.10;;;;;;6128575;22;95682;-73
2022/02/12 03:16:12;;;;;;;14.15;5.53;;;1.00;91.10;;;;;;6128346;22;92444;-72
2022/02/12 03:18:44;;;;;;;14.13;5.20;;;1.00;91.20;;;;;;6154065;22;98890;-73
2022/02/12 03:21:11;;;;;;;14.52;5.95;;;1.00;91.10;;;;;;6154879;22;93111;-72
2022/02/12 03:23:39;;;;;;;10.98;5.38;;;1.00;91.10;;;;;;6155156;22;93066;-73
2022/02/12 03:26:07;;;;;;;11.77;4.90;;;1.00;91.10;;;;;;6152104;22;94831;-72
2022/02/12 03:28:34;;;;;;;15.15;5.35;;;0.90;91.00;;;;;;6128582;22;92484;-72
2022/02/12 03:31:01;;;;;;;13.95;5.20;;;1.00;91.00;;;;;;6155017;22;93293;-73
2022/02/12 03:33:28;;;;;;;14.73;5.35;;;0.90;91.00;;;;;;6153465;22;93137;-73
2022/02/12 03:35:55;;;;;;;16.80;5.53;;;0.90;91.00;;;;;;6153868;22;92515;-73
2022/02/12 03:38:26;;;;;;;17.85;6.22;;;0.90;91.00;;;;;;6153349;22;92475;-73
2022/02/12 03:41:02;;;;;;;11.77;5.13;;;0.90;91.10;;;;;;6153203;22;95723;-73
2022/02/12 03:43:35;;;;;;;19.00;6.22;;;0.90;91.10;;;;;;6155090;22;95420;-73
2022/02/12 03:46:04;;;;;;;17.63;5.40;;;0.90;91.10;;;;;;6156573;22;92321;-72
2022/02/12 03:48:31;;;;;;;12.52;5.30;;;0.90;91.20;;;;;;6154568;22;92510;-73
2022/02/12 03:50:58;;;;;;;16.30;5.80;;;0.90;91.10;;;;;;6153820;22;110417;-72
2022/02/12 03:53:25;;;;;;;12.25;4.95;;;0.90;91.20;;;;;;6154368;22;95184;-72
2022/02/12 03:55:52;;;;;;;11.27;5.28;;;0.90;91.30;;;;;;6129581;22;92417;-72
2022/02/12 03:58:19;;;;;;;9.30;5.30;;;0.90;91.40;;;;;;6154698;22;92577;-72
2022/02/12 04:00:48;;;;;;;7.25;4.35;;;0.90;91.30;;;;;;6154778;22;93145;-72
2022/02/12 04:03:16;;;;;;;10.80;4.95;;;0.90;91.30;;;;;;6155982;22;93337;-72
2022/02/12 04:05:44;;;;;;;13.13;5.22;;;0.90;91.30;;;;;;6155918;22;92326;-72
2022/02/12 04:08:13;;;;;;;14.52;5.25;;;0.90;91.30;;;;;;6155167;22;91702;-73
2022/02/12 04:10:40;;;;;;;9.32;5.00;;;0.90;91.20;;;;;;6154685;22;93249;-72
2022/02/12 04:13:07;;;;;;;11.05;5.55;;;0.90;91.20;;;;;;6155946;22;92730;-72
2022/02/12 04:15:34;;;;;;;17.10;5.97;;;0.90;91.10;;;;;;6154686;22;94683;-72
2022/02/12 04:18:02;;;;;;;12.90;5.47;;;0.90;91.10;;;;;;6156053;22;92495;-72
2022/02/12 04:20:29;;;;;;;14.57;5.65;;;0.90;91.10;;;;;;6155689;22;93229;-73
2022/02/12 04:22:56;;;;;;;15.35;5.63;;;0.80;91.10;;;;;;6153875;22;109052;-72
2022/02/12 04:25:24;;;;;;;9.98;5.88;;;0.80;91.10;;;;;;6155981;22;92371;-72
2022/02/12 04:27:52;;;;;;;13.45;5.40;;;0.80;91.10;;;;;;6154691;22;92462;-72
2022/02/12 04:30:19;;;;;;;18.05;5.93;;;0.80;91.20;;;;;;6154405;22;93097;-72
2022/02/12 04:32:46;;;;;;;19.08;5.47;;;0.80;91.10;;;;;;6156382;22;93052;-72
2022/02/12 04:35:15;;;;;;;16.98;5.38;;;0.80;91.20;;;;;;6156244;22;92334;-72
2022/02/12 04:37:43;;;;;;;13.95;5.22;;;0.80;91.20;;;;;;6156116;22;92852;-72
2022/02/12 04:40:11;;;;;;;18.80;5.15;;;0.80;91.40;;;;;;6154420;22;95626;-72
2022/02/12 04:42:38;;;;;;;19.88;5.65;;;0.80;91.30;;;;;;6129054;22;96308;-73
2022/02/12 04:45:06;;;;;;;15.65;5.45;;;0.80;91.20;;;;;;6156228;22;92305;-72
2022/02/12 04:47:33;;;;;;;16.10;5.53;;;0.80;91.20;;;;;;6153392;22;109335;-72
2022/02/12 04:50:00;;;;;;;10.65;5.10;;;0.80;91.30;;;;;;6155931;22;93181;-72
2022/02/12 04:52:27;;;;;;;11.32;4.88;;;0.80;91.20;;;;;;6153560;22;95557;-72
2022/02/12 04:54:55;;;;;;;12.48;4.95;;;0.80;91.20;;;;;;6155472;22;92447;-72
2022/02/12 04:57:22;;;;;;;11.68;5.45;;;0.90;91.40;;;;;;6103091;22;91744;-72
2022/02/12 04:59:49;;;;;;;10.45;5.05;;;0.90;91.30;;;;;;6154216;22;93100;-72
2022/02/12 05:02:16;;;;;;;13.43;5.43;;;0.90;91.30;;;;;;6154202;22;92947;-72
2022/02/12 05:04:43;;;;;;;16.30;5.65;;;0.90;91.20;;;;;;6152708;22;94693;-72
2022/02/12 05:07:10;;;;;;;21.38;5.95;;;0.90;91.20;;;;;;6127461;22;92418;-72
2022/02/12 05:09:38;;;;;;;12.95;5.38;;;0.90;91.20;;;;;;6126917;22;95716;-72
2022/02/12 05:12:06;;;;;;;11.80;5.15;;;0.90;91.10;;;;;;6153887;22;92873;-72
2022/02/12 05:14:34;;;;;;;15.32;5.32;;;0.90;91.20;;;;;;6154265;22;92749;-72
2022/02/12 05:17:03;;;;;;;10.68;5.38;;;0.90;91.30;;;;;;6128091;22;93277;-72
2022/02/12 05:19:31;;;;;;;13.85;5.60;;;0.90;91.30;;;;;;6126350;22;103825;-72
2022/02/12 05:21:57;;;;;;;16.00;6.10;;;0.90;91.30;;;;;;6154490;22;92986;-72
2022/02/12 05:24:24;;;;;;;15.07;6.03;;;1.00;91.30;;;;;;6153918;22;92274;-72
2022/02/12 05:26:52;;;;;;;14.90;7.03;;;0.90;91.30;;;;;;6154111;22;92445;-72
2022/02/12 05:29:20;;;;;;;20.63;7.03;;;1.00;91.30;;;;;;6101903;22;95582;-72
2022/02/12 05:31:47;;;;;;;15.52;6.05;;;0.90;91.20;;;;;;6102296;22;95257;-72
2022/02/12 05:34:16;;;;;;;14.57;6.85;;;0.90;91.50;;;;;;6154151;22;92455;-72
2022/02/12 05:36:43;;;;;;;19.83;7.80;;;0.90;91.20;;;;;;6153722;22;92384;-72
2022/02/12 05:39:12;;;;;;;14.98;6.82;;;0.90;91.20;;;;;;6153981;22;92865;-72
2022/02/12 05:41:39;;;;;;;14.82;6.93;;;0.90;91.20;;;;;;6153414;22;95246;-72
2022/02/12 05:44:07;;;;;;;18.77;7.28;;;1.00;91.30;;;;;;6154014;22;92376;-72
2022/02/12 05:46:35;;;;;;;14.55;7.22;;;1.00;91.30;;;;;;6127558;22;91814;-72
2022/02/12 05:49:05;;;;;;;14.63;7.82;;;1.00;91.30;;;;;;6127166;22;93280;-72
2022/02/12 05:51:31;;;;;;;15.98;7.10;;;1.00;91.50;;;;;;6153220;22;93037;-72
2022/02/12 05:54:00;;;;;;;14.85;7.53;;;1.00;91.40;;;;;;6152123;22;94782;-72
2022/02/12 05:56:31;;;;;;;18.92;7.93;;;1.00;91.40;;;;;;6104711;22;1176033;-72
2022/02/12 05:58:59;;;;;;;16.88;7.25;;;1.00;91.30;;;;;;6129409;22;92426;-72
2022/02/12 06:01:26;;;;;;;14.25;7.25;;;1.00;91.50;;;;;;6128344;22;95581;-72
2022/02/12 06:03:53;;;;;;;17.75;7.60;;;1.00;91.50;;;;;;6129295;22;92528;-72
2022/02/12 06:06:20;;;;;;;18.90;8.10;;;1.00;91.50;;;;;;6155531;22;92395;-72
2022/02/12 06:08:47;;;;;;;21.60;8.07;;;1.00;91.70;;;;;;6155223;22;92984;-72
2022/02/12 06:11:15;;;;;;;17.95;7.93;;;1.00;91.70;;;;;;6129770;22;92806;-72
2022/02/12 06:13:42;;;;;;;20.80;8.02;;;1.00;91.70;;;;;;6128482;22;92395;-72
2022/02/12 06:16:09;;;;;;;12.80;7.40;;;1.00;91.60;;;;;;6155645;22;92386;-72
2022/02/12 06:18:37;;;;;;;40.90;23.55;;;1.00;91.50;;;;;;6152997;22;109656;-72
2022/02/12 06:21:06;;;;;;;23.15;11.60;;;1.00;91.50;;;;;;6128332;22;95328;-72
2022/02/12 06:23:35;;;;;;;29.45;16.67;;;1.00;91.50;;;;;;6129022;22;92346;-72
2022/02/12 06:26:04;;;;;;;22.80;11.20;;;1.00;91.50;;;;;;6103360;22;92563;-72
2022/02/12 06:28:31;;;;;;;21.08;9.13;;;1.00;91.50;;;;;;6127867;22;96118;-72
2022/02/12 06:31:01;;;;;;;19.95;8.48;;;1.00;91.50;;;;;;6155447;22;95717;-72
2022/02/12 06:33:29;;;;;;;24.27;16.73;;;1.00;91.40;;;;;;6155629;22;92846;-72
2022/02/12 06:35:58;;;;;;;26.30;11.52;;;1.00;91.50;;;;;;6155479;22;91599;-72
2022/02/12 06:38:25;;;;;;;25.83;16.10;;;1.00;91.60;;;;;;6154654;22;93246;-72
2022/02/12 06:40:52;;;;;;;23.20;9.82;;;1.00;91.70;;;;;;6127900;22;93057;-72
2022/02/12 06:43:19;;;;;;;22.98;12.90;;;1.00;91.60;;;;;;6127236;22;94837;-72
2022/02/12 06:45:46;;;;;;;18.30;11.07;;;1.00;91.50;;;;;;6154663;22;92741;-72
2022/02/12 06:48:13;;;;;;;22.67;13.48;;;1.00;91.50;;;;;;6154648;22;93236;-72
2022/02/12 06:50:42;;;;;;;19.67;12.30;;;1.00;91.60;;;;;;6154292;22;92813;-72
2022/02/12 06:53:09;;;;;;;25.65;10.48;;;1.00;91.50;;;;;;6127713;22;92487;-72
2022/02/12 06:55:36;;;;;;;17.77;10.27;;;1.00;91.40;;;;;;6154154;22;92413;-72
2022/02/12 06:58:04;;;;;;;20.73;9.35;;;1.00;91.60;;;;;;6127674;22;95896;-72
2022/02/12 07:00:31;;;;;;;18.25;10.60;;;1.00;91.50;;;;;;6155709;22;92983;-72
2022/02/12 07:02:59;;;;;;;22.77;11.50;;;1.00;91.40;;;;;;6128006;22;92493;-72
2022/02/12 07:05:26;;;;;;;21.48;9.98;;;1.00;91.30;;;;;;6128200;22;92510;-72
2022/02/12 07:07:53;;;;;;;21.33;10.38;;;1.00;91.20;;;;;;6152666;22;95465;-72
2022/02/12 07:10:21;;;;;;;35.83;19.83;;;1.10;91.20;;;;;;6127426;22;98824;-72
2022/02/12 07:12:48;;;;;;;51.67;28.50;;;1.10;91.20;;;;;;6127191;22;92466;-72
2022/02/12 07:15:15;;;;;;;62.03;39.25;;;1.10;91.10;;;;;;6127664;22;94905;-72
2022/02/12 07:17:42;;;;;;;29.88;19.98;;;1.10;91.10;;;;;;6127433;22;94782;-72
2022/02/12 07:20:11;;;;;;;40.38;30.77;;;1.10;91.00;;;;;;6154441;22;92944;-72
2022/02/12 07:22:42;;;;;;;22.23;11.68;;;1.10;90.90;;;;;;6127803;22;93369;-72
2022/02/12 07:25:12;;;;;;;26.17;15.55;;;1.10;91.00;;;;;;6129748;22;91581;-72
2022/02/12 07:27:41;;;;;;;27.10;11.07;;;1.10;90.90;;;;;;6154478;22;93076;-72
2022/02/12 07:30:12;;;;;;;21.52;16.92;;;1.20;90.90;;;;;;6127700;22;95689;-72
2022/02/12 07:32:40;;;;;;;21.60;15.68;;;1.20;90.90;;;;;;6125833;22;94871;-72
2022/02/12 07:35:13;;;;;;;37.85;29.05;;;1.20;91.00;;;;;;6154405;22;92400;-73
2022/02/12 07:37:43;;;;;;;15.18;11.93;;;1.30;90.90;;;;;;6154309;22;92920;-72
2022/02/12 07:40:15;;;;;;;31.90;24.25;;;1.40;91.00;;;;;;6154423;22;93107;-72
2022/02/12 07:42:43;;;;;;;25.80;17.50;;;1.50;90.80;;;;;;6127571;22;92379;-73
2022/02/12 07:45:12;;;;;;;71.70;43.05;;;1.50;90.60;;;;;;6154418;22;92403;-73
2022/02/12 07:47:40;;;;;;;39.63;22.73;;;1.70;90.60;;;;;;6154076;22;93078;-72
2022/02/12 07:50:09;;;;;;;39.15;28.23;;;1.70;90.40;;;;;;6127550;22;95498;-72
2022/02/12 07:52:36;;;;;;;19.65;11.68;;;1.80;90.40;;;;;;6102530;22;92461;-73
2022/02/12 07:55:04;;;;;;;19.83;11.55;;;1.90;90.30;;;;;;6153600;22;92493;-73
2022/02/12 07:57:31;;;;;;;17.30;10.20;;;2.10;90.20;;;;;;6101004;22;98081;-73
2022/02/12 07:59:59;;;;;;;17.73;9.10;;;2.10;90.00;;;;;;6127272;22;94245;-73
2022/02/12 08:02:26;;;;;;;17.05;15.25;;;2.30;89.60;;;;;;6127898;22;92460;-73
2022/02/12 08:04:53;;;;;;;20.35;11.38;;;2.40;89.70;;;;;;6127479;22;92437;-73
2022/02/12 08:07:28;;;;;;;17.90;10.95;;;2.50;89.20;;;;;;6126510;22;109909;-73
2022/02/12 08:11:22;;;;;;;19.50;13.02;;;2.70;88.60;;;;;;6126938;22;95632;-73
2022/02/12 08:12:51;;;;;;;20.25;16.17;;;2.80;88.20;;;;;;6126743;22;92470;-73
2022/02/12 08:15:19;;;;;;;22.83;21.23;;;3.00;87.20;;;;;;6102812;22;91632;-73
2022/02/12 08:17:46;;;;;;;65.43;61.45;;;3.20;86.70;;;;;;6126790;22;94173;-73
2022/02/12 08:20:13;;;;;;;12.65;6.43;;;3.30;86.10;;;;;;6153860;22;92794;-73
2022/02/12 08:22:40;;;;;;;12.57;5.68;;;3.50;85.30;;;;;;6126318;22;94839;-73
2022/02/12 08:25:08;;;;;;;16.00;8.00;;;3.60;85.10;;;;;;6154436;22;92497;-73
2022/02/12 08:27:36;;;;;;;13.40;6.18;;;3.70;84.30;;;;;;6127497;22;107554;-73
2022/02/12 08:30:05;;;;;;;16.60;6.35;;;3.80;83.80;;;;;;6155166;22;92668;-73
2022/02/12 08:32:33;;;;;;;15.70;7.15;;;3.80;83.80;;;;;;6129853;22;92482;-73
2022/02/12 08:35:00;;;;;;;19.05;7.45;;;3.80;83.50;;;;;;6129060;22;92685;-73
2022/02/12 08:37:27;;;;;;;10.75;6.55;;;3.90;83.50;;;;;;6128995;22;94241;-73
2022/02/12 08:39:54;;;;;;;13.70;7.80;;;3.90;83.30;;;;;;6155970;22;92849;-73
2022/02/12 08:42:21;;;;;;;14.90;6.43;;;3.90;83.10;;;;;;6129444;22;92401;-74
2022/02/12 08:44:49;;;;;;;17.63;6.90;;;3.90;83.40;;;;;;6156186;22;92788;-74
2022/02/12 08:47:16;;;;;;;17.77;7.45;;;3.90;83.50;;;;;;6127526;22;98369;-73
2022/02/12 08:49:43;;;;;;;12.23;6.63;;;3.90;83.50;;;;;;6129438;22;95345;-73
2022/02/12 08:52:11;;;;;;;13.13;5.75;;;3.90;83.80;;;;;;6129509;22;92858;-73
2022/02/12 08:54:38;;;;;;;17.15;6.53;;;3.90;83.20;;;;;;6155128;22;92783;-74
2022/02/12 08:57:05;;;;;;;15.68;5.53;;;4.00;83.30;;;;;;6104348;22;95662;-73
2022/02/12 08:59:32;;;;;;;14.20;6.05;;;4.00;83.80;;;;;;6128892;22;95651;-73
2022/02/12 09:02:12;;;;;;;14.10;5.38;;;4.00;83.20;;;;;;6155855;22;92367;-73
2022/02/12 09:04:40;;;;;;;12.10;5.28;;;4.10;83.70;;;;;;6156425;22;91592;-75
2022/02/12 09:07:09;;;;;;;9.52;4.75;;;4.10;83.80;;;;;;6155575;22;94124;-74
2022/02/12 09:09:36;;;;;;;15.65;6.68;;;4.20;83.30;;;;;;6128774;22;95609;-73
2022/02/12 09:12:04;;;;;;;13.07;5.05;;;4.20;83.30;;;;;;6127663;22;94859;-75
2022/02/12 09:14:30;;;;;;;13.60;5.07;;;4.30;83.30;;;;;;6155936;22;92482;-75
2022/02/12 09:16:57;;;;;;;13.15;6.18;;;4.40;82.90;;;;;;6129115;22;92481;-74
2022/02/12 09:19:24;;;;;;;10.82;5.38;;;4.40;83.00;;;;;;6128728;22;95665;-74
2022/02/12 09:21:51;;;;;;;10.68;4.95;;;4.40;82.10;;;;;;6129582;22;92492;-74
2022/02/12 09:24:18;;;;;;;11.32;5.35;;;4.50;82.40;;;;;;6155555;22;92331;-74
2022/02/12 09:26:45;;;;;;;11.20;5.47;;;4.50;82.30;;;;;;6104189;22;93415;-74
2022/02/12 09:29:12;;;;;;;14.88;6.28;;;4.60;82.70;;;;;;6155866;22;93007;-73
2022/02/12 09:31:39;;;;;;;11.77;5.25;;;4.70;81.90;;;;;;6155831;22;92381;-74
2022/02/12 09:34:08;;;;;;;14.32;6.00;;;4.70;81.50;;;;;;6155412;22;92398;-73
2022/02/12 09:36:37;;;;;;;13.25;5.22;;;4.80;81.60;;;;;;6127191;22;98043;-74
2022/02/12 09:39:06;;;;;;;13.60;5.32;;;4.90;81.20;;;;;;6154775;22;95408;-74
2022/02/12 09:41:35;;;;;;;11.75;5.97;;;4.90;80.70;;;;;;6155639;22;92309;-74
2022/02/12 09:44:03;;;;;;;17.00;5.97;;;5.00;81.80;;;;;;6129144;22;92546;-73
2022/02/12 09:46:58;;;;;;;13.50;5.10;;;5.10;80.30;;;;;;6128671;22;95593;-73
2022/02/12 09:49:26;;;;;;;13.88;5.00;;;5.10;79.70;;;;;;6104132;22;95466;-74
2022/02/12 09:51:53;;;;;;;17.95;5.90;;;5.10;79.40;;;;;;6129028;22;92405;-74
2022/02/12 09:54:22;;;;;;;17.83;5.55;;;5.20;79.20;;;;;;6155857;22;91694;-74
2022/02/12 09:56:50;;;;;;;11.40;4.80;;;5.30;79.10;;;;;;6152333;22;92996;-73
2022/02/12 09:59:17;;;;;;;28.00;11.55;;;5.40;78.00;;;;;;6153346;22;95539;-73
2022/02/12 10:01:44;;;;;;;47.58;25.00;;;5.40;78.10;;;;;;6152149;22;94778;-74
2022/02/12 10:04:16;;;;;;;18.95;14.40;;;5.50;77.40;;;;;;6154821;22;92334;-74
2022/02/12 10:06:45;;;;;;;68.50;49.40;;;5.60;77.40;;;;;;6152800;22;95870;-74
2022/02/12 10:09:12;;;;;;;12.05;6.47;;;5.60;77.40;;;;;;6152626;22;96145;-74
2022/02/12 10:11:50;;;;;;;13.55;5.15;;;5.70;77.50;;;;;;6154081;22;92470;-73
2022/02/12 10:14:23;;;;;;;11.13;5.30;;;5.80;77.10;;;;;;6155404;22;92367;-73
2022/02/12 10:17:06;;;;;;;11.23;4.90;;;5.90;76.20;;;;;;6155577;22;93276;-73
2022/02/12 10:19:44;;;;;;;8.20;4.63;;;6.00;76.00;;;;;;6154669;22;95670;-75
2022/02/12 10:22:13;;;;;;;13.38;5.43;;;6.00;75.90;;;;;;6153870;22;92500;-74
2022/02/12 10:25:03;;;;;;;10.77;4.55;;;6.10;75.70;;;;;;6155674;22;92554;-74
2022/02/12 10:27:31;;;;;;;12.63;6.10;;;6.10;75.10;;;;;;6154068;22;95507;-74
2022/02/12 10:30:01;;;;;;;9.70;5.22;;;6.20;74.60;;;;;;6153681;22;95443;-74
2022/02/12 10:32:29;;;;;;;13.25;5.47;;;6.30;75.70;;;;;;6153999;22;92426;-74
2022/02/12 10:34:56;;;;;;;12.82;5.35;;;6.30;74.80;;;;;;6153985;22;92432;-74
2022/02/12 10:37:24;;;;;;;10.38;6.03;;;6.40;74.30;;;;;;6129375;22;93255;-74
2022/02/12 10:39:58;;;;;;;14.43;5.10;;;6.50;74.30;;;;;;6155378;22;92864;-74
2022/02/12 10:42:27;;;;;;;;;;;6.50;73.00;;;;;;6155950;22;92324;-74
2022/02/12 10:44:59;;;;;;;10.82;4.88;;;6.60;74.50;;;;;;6155853;22;91690;-74
2022/02/12 10:47:26;;;;;;;10.18;4.38;;;6.70;73.40;;;;;;6155120;22;93242;-74
2022/02/12 10:49:53;;;;;;;12.40;5.00;;;6.70;72.30;;;;;;6155294;22;92843;-74
2022/02/12 10:52:22;;;;;;;16.08;5.13;;;6.80;71.60;;;;;;6153511;22;95036;-74
2022/02/12 10:54:51;;;;;;;12.40;4.78;;;6.90;72.20;;;;;;6153252;22;92451;-74
2022/02/12 10:57:22;;;;;;;10.38;3.95;;;6.90;71.90;;;;;;6103876;22;95852;-74
2022/02/12 10:59:51;;;;;;;11.45;4.22;;;6.90;71.30;;;;;;6128883;22;92980;-74
2022/02/12 11:02:18;;;;;;;15.55;5.05;;;7.00;71.10;;;;;;6128154;22;92584;-74
2022/02/12 11:04:48;;;;;;;10.48;3.25;;;7.10;71.50;;;;;;6104226;22;92456;-74
2022/02/12 11:07:17;;;;;;;9.85;4.65;;;7.10;70.30;;;;;;6154991;22;93166;-74
2022/02/12 11:09:46;;;;;;;11.02;4.72;;;7.20;71.10;;;;;;6128480;22;95404;-74
2022/02/12 11:12:14;;;;;;;8.88;5.30;;;7.30;71.40;;;;;;6128108;22;92550;-74
2022/02/12 11:14:47;;;;;;;11.15;4.68;;;7.30;71.00;;;;;;6103649;22;92555;-74
2022/02/12 11:17:26;;;;;;;16.83;5.57;;;7.40;70.10;;;;;;6102133;22;97821;-74
2022/02/12 11:19:53;;;;;;;11.55;4.90;;;7.40;70.00;;;;;;6154899;22;95274;-74
2022/02/12 11:22:20;;;;;;;10.20;4.68;;;7.50;68.90;;;;;;6128334;22;92543;-74
2022/02/12 11:24:47;;;;;;;11.88;4.30;;;7.50;69.80;;;;;;6155502;22;92436;-75
2022/02/12 11:27:41;;;;;;;12.70;4.10;;;7.60;69.40;;;;;;6128418;22;93053;-74
2022/02/12 11:30:16;;;;;;;9.10;4.30;;;7.70;68.80;;;;;;6150215;22;95744;-74
2022/02/12 11:32:45;;;;;;;9.77;4.60;;;7.70;68.60;;;;;;6127978;22;92425;-75
2022/02/12 11:35:12;;;;;;;11.20;4.35;;;7.70;68.30;;;;;;6155455;22;91651;-74
2022/02/12 11:37:41;;;;;;;11.98;4.05;;;7.80;67.80;;;;;;6154778;22;93198;-75
2022/02/12 11:40:18;;;;;;;13.38;4.15;;;7.80;67.80;;;;;;6128509;22;92945;-74
2022/02/12 11:42:56;;;;;;;13.68;4.60;;;7.90;68.00;;;;;;6127062;22;94794;-74
2022/02/12 11:45:47;;;;;;;11.82;3.85;;;7.90;68.10;;;;;;6128030;22;92486;-74
2022/02/12 11:48:26;;;;;;;7.95;3.80;;;8.00;67.40;;;;;;6103490;22;95674;-74
2022/02/12 11:50:55;;;;;;;10.88;4.38;;;8.00;67.80;;;;;;6128217;22;95749;-74
2022/02/12 11:53:44;;;;;;;8.52;3.88;;;8.00;68.20;;;;;;6154886;22;92812;-75
2022/02/12 11:56:17;;;;;;;8.52;4.20;;;8.10;67.20;;;;;;6144188;22;92428;-74
2022/02/12 11:58:45;;;;;;;8.55;3.88;;;8.10;67.60;;;;;;6153216;22;95595;-74
2022/02/12 12:01:35;;;;;;;10.85;4.13;;;8.20;67.70;;;;;;6155144;22;92989;-74
2022/02/12 12:04:15;;;;;;;12.63;3.95;;;8.40;67.20;;;;;;6154620;22;92387;-75
2022/02/12 12:07:04;;;;;;;8.20;3.92;;;8.40;67.00;;;;;;6156326;22;92302;-75
2022/02/12 12:09:34;;;;;;;15.13;3.58;;;8.50;65.80;;;;;;6152642;22;98135;-74
2022/02/12 12:12:19;;;;;;;10.93;3.55;;;8.50;66.10;;;;;;6153980;22;97805;-74
2022/02/12 12:14:48;;;;;;;9.90;4.10;;;8.60;65.70;;;;;;6154483;22;92491;-75
2022/02/12 12:17:15;;;;;;;10.73;3.28;;;8.50;66.10;;;;;;6155148;22;92400;-75
2022/02/12 12:19:51;;;;;;;8.38;3.95;;;8.60;65.60;;;;;;6155540;22;93208;-73
2022/02/12 12:22:20;;;;;;;11.45;3.95;;;8.70;65.70;;;;;;6156188;22;93079;-75
2022/02/12 12:24:47;;;;;;;8.30;4.25;;;8.70;65.20;;;;;;6154978;22;92794;-73
2022/02/12 12:27:18;;;;;;;9.15;3.95;;;8.80;65.80;;;;;;6156545;22;91636;-73
2022/02/12 12:32:31;;;;;;;11.77;3.60;;;8.80;64.70;;;;;;6154641;22;92775;-73
2022/02/12 12:35:03;;;;;;;6.10;3.05;;;8.80;64.30;;;;;;6128017;22;94938;-73
2022/02/12 12:37:50;;;;;;;14.20;4.18;;;8.80;64.50;;;;;;6154496;22;92447;-73
2022/02/12 12:40:27;;;;;;;9.27;4.00;;;8.90;64.90;;;;;;6129329;22;95777;-72
2022/02/12 12:43:04;;;;;;;6.82;4.30;;;8.90;64.70;;;;;;6155819;22;92839;-73
2022/02/12 12:45:37;;;;;;;12.48;4.90;;;8.90;64.40;;;;;;6154670;22;92398;-72
2022/02/12 12:48:04;;;;;;;9.65;4.05;;;8.90;64.30;;;;;;6154294;22;92435;-73
2022/02/12 12:50:38;;;;;;;10.20;4.07;;;9.00;64.50;;;;;;6154839;22;109694;-73
2022/02/12 12:53:10;;;;;;;12.35;4.03;;;9.00;64.40;;;;;;6154842;22;92057;-72
2022/02/12 12:55:44;;;;;;;8.50;4.30;;;9.10;64.60;;;;;;6131133;22;92555;-72
2022/02/12 12:58:16;;;;;;;8.90;3.97;;;9.00;64.80;;;;;;6125783;23;92305;-72
2022/02/12 13:00:44;;;;;;;10.00;4.25;;;9.10;64.50;;;;;;6123853;23;95723;-72
2022/02/12 13:03:11;;;;;;;13.68;4.88;;;9.10;64.10;;;;;;6074715;23;97862;-72